Terminal Aerodrome Forecast
Issued by NWS

Home | Current Version | Previous Version | Graphics & Text | Print | Product List | Glossary Off
Versions: 1 2 3 4 5 6 7 8 9 10 11 12 13 14 15 16 17 18 19 20 21

000
FTUS43 KDDC 221440 AAB
TAFHYS
TAF AMD
KHYS 221440Z 2215/2312 09008KT P6SM BKN045
     FM221700 13012KT P6SM OVC030
     FM221900 14012KT P6SM OVC035
     FM230300 14013KT P6SM OVC020
     FM230600 15010KT 4SM BR OVC003
     FM230900 17012G20KT 2SM BR OVC003 WS020/19050KT
      AMD NOT SKED=

USA.gov is the U.S. government's official web portal to all federal, state and local government web resources and services.